Palm Beach, FL

11:04 PM EDT on October 22, 2014 (GMT -0400)
Palm Beach, FL | Change Station
CLOSE
Current Station
Personal Weather Station
Location: Palm Beach, FL
Elevation: 8 ft
Nearby Weather Stations

Elev 8 ft 26.71 °N, 80.04 °W | Updated 8 seconds ago

Mostly Cloudy
Mostly Cloudy
79.7 °F
Feels Like 83 °F
N
2.9
Wind Variable Wind from North
Gusts 6.0 mph

Today
High -- | Low -- °F
--% Chance of Precip.
Yesterday
High -- | Low -- °F
Precip. -- in
7:23 AM 6:45 PM
Waning Crescent, 1% visible
Pressure 29.94 in
Visibility 10.0 miles
Clouds Scattered Clouds 2900 ft
Mostly Cloudy 5000 ft
Mostly Cloudy 11000 ft
Heat Index 83 °F
Dew Point 72 °F
Humidity 77%
Rainfall 0.00 in
Snow Depth Not available.
UV 0 out of 12
Pollen 3.40 out of 12
Ozone Good
PM2.5 Good
Flu Activity Local Activity
METAR KPBI 230253Z 35004KT 10SM SCT029 BKN050 BKN110 25/22 A2993 RMK AO2 RAE16 SLP136 P0000 60000 T02500217 50003

More Conditions Fewer Conditions

Pressure 29.94 in
Visibility 10.0 miles
Clouds Scattered Clouds 2900 ft
Mostly Cloudy 5000 ft
Mostly Cloudy 11000 ft
Heat Index 83 °F
Dew Point 72 °F
Humidity 77%
Rainfall 0.00 in
Snow Depth Not available.
UV 0 out of 12
Pollen 3.40 out of 12
Ozone Good
PM2.5 Good
Flu Activity Local Activity
METAR KPBI 230253Z 35004KT 10SM SCT029 BKN050 BKN110 25/22 A2993 RMK AO2 RAE16 SLP136 P0000 60000 T02500217 50003

More Conditions Fewer Conditions

Nowcast | as of 9:29 PM EDT on October 22, 2014

Scattered showers with locally heavy rainfall will develop along the southeast coast and affect mainly Metro and coastal areas of Miami-Dade, Broward and Palm Beach counties through the evening hours. An isolated thunderstorm is also possible. Scattered showers and isolated thunderstorms will continue over the Atlantic.

×

10-Day Weather Forecast

Almanac

Astronomy

Oct. 22, 2014 Rise Set
Actual Time 7:23 AM EDT 6:45 PM EDT
Civil Twilight 6:59 AM EDT 7:08 PM EDT
Nautical Twilight 6:32 AM EDT 7:36 PM EDT
Astronomical Twilight 6:05 AM EDT 8:02 PM EDT
Moon 6:10 AM EDT (10/22) 6:06 PM EDT (10/22)
Length of Visible Light 12h 08m
Length of Day
11h 21m
Tomorrow will be 1m 27s shorter.
Waning Crescent, 1% of the Moon is Illuminated
Today
Waning Crescent
Oct 23
New
Oct 30
First Quarter
Nov 6
Full
Nov 14
Last Quarter

Today's Extremes

State Highs State Lows

Community

WunderPhotos

Upload Photos

1,764,121 photos uploaded!

Nearby

Air Quality

  Air Quality AQ Index Pollutant
Yesterday Good
PM2.5
Yesterday Good
OZONE
Current Good
PM2.5
Current Good
OZONE
Wednesday Good
OZONE
Wednesday Good
PM2.5
Thursday Good
OZONE
Thursday Good
PM2.5
Friday Good
OZONE
Friday Good
PM2.5

Snow Depth

Station Depth Elevation
No new snow has been reported.

Earthquake Activity

City Distance Mag. Time & Date
No recent earthquake activity has been reported nearby.
Minimum magnitude displayed is 2.5.

Coastal Water Temperatures

Place Temperature
Lake Worth, FL 82.9 °F
Virginia Key, FL 81.0 °F

Nearby Weather Stations